Terminal Aerodrome Forecast
Issued by NWS Twin Cities, MN

Home | Current Version | Previous Version | Text Only | Print | Product List | Glossary On
Versions: 1 2 3 4 5 6 7 8 9 10 11 12 13 14 15 16 17
000
FTUS43 KMPX 031720
TAFEAU
TAF
KEAU 031720Z 0318/0418 25007KT P6SM FEW040 SCT250
     FM032200 25008KT P6SM VCSH SCT050 BKN070
     FM040300 26003KT P6SM SCT070
     FM040900 VRB02KT 3SM BR SKC
     FM041300 14004KT P6SM SKC=

USA.gov is the U.S. government's official web portal to all federal, state and local government web resources and services.